Time;durP1;ratioP1;P1;durP2;ratioP2;P2;SDS_P1;SDS_P2;PMS_P1;PMS_P2;Temp;Humidity;BMP_temperature;BMP_pressure;BME280_temperature;BME280_humidity;BME280_pressure;Samples;Min_cycle;Max_cycle;Signal;HPM_P1;HPM_P2
2022/02/06 00:01:41;;;;;;;17.50;9.30;;;;;0.80;97925.60;;;;110788;1249;41611;-59
2022/02/06 00:04:11;;;;;;;22.30;10.00;;;;;0.70;97926.00;;;;110994;1248;42499;-59
2022/02/06 00:06:41;;;;;;;22.80;11.00;;;;;0.60;97927.20;;;;111020;1246;41152;-60
2022/02/06 00:09:10;;;;;;;29.30;14.70;;;;;0.60;97928.00;;;;111068;1246;41264;-59
2022/02/06 00:11:39;;;;;;;31.50;15.50;;;;;0.50;97928.60;;;;111048;1247;41264;-59
2022/02/06 00:14:09;;;;;;;28.90;14.60;;;;;0.40;97940.60;;;;111030;1246;41149;-60
2022/02/06 00:16:38;;;;;;;30.30;15.10;;;;;0.36;97940.40;;;;110985;1247;42291;-59
2022/02/06 00:19:07;;;;;;;30.20;14.70;;;;;0.30;97945.00;;;;111007;1247;41265;-59
2022/02/06 00:21:37;;;;;;;29.50;15.60;;;;;0.20;97940.20;;;;110986;1246;41709;-59
2022/02/06 00:24:10;;;;;;;30.60;15.30;;;;;0.10;97942.00;;;;110671;1249;41160;-59
2022/02/06 00:26:53;;;;;;;32.50;14.50;;;;;0.00;97948.40;;;;110996;1248;41149;-59
2022/02/06 00:29:34;;;;;;;33.80;16.50;;;;;-0.10;97939.60;;;;110780;1249;41182;-60
2022/02/06 00:32:08;;;;;;;33.50;16.20;;;;;-0.20;97939.20;;;;110770;1251;41156;-59
2022/02/06 00:40:06;;;;;;;33.00;15.50;;;;;-0.30;97947.00;;;;110950;1249;42024;-59
2022/02/06 00:42:35;;;;;;;29.30;13.90;;;;;-0.40;97946.60;;;;111045;1248;41154;-59
2022/02/06 00:45:06;;;;;;;26.50;12.50;;;;;-0.40;97943.20;;;;111127;1247;41144;-59
2022/02/06 00:47:36;;;;;;;27.80;12.80;;;;;-0.50;97940.60;;;;111018;1249;41543;-58
2022/02/06 00:50:07;;;;;;;25.90;12.10;;;;;-0.50;97944.40;;;;110923;1247;41995;-59
2022/02/06 00:52:41;;;;;;;25.90;12.40;;;;;-0.58;97942.80;;;;111044;1246;41786;-60
2022/02/06 00:55:12;;;;;;;23.90;12.50;;;;;-0.60;97942.60;;;;111024;1247;41174;-61
2022/02/06 00:57:41;;;;;;;25.10;11.80;;;;;-0.60;97940.20;;;;110827;1249;41264;-59
2022/02/06 01:00:11;;;;;;;24.50;12.20;;;;;-0.64;97929.00;;;;111029;1248;42342;-60
2022/02/06 01:02:40;;;;;;;23.60;13.10;;;;;-0.70;97931.20;;;;111046;1247;41996;-61
2022/02/06 01:05:10;;;;;;;26.30;12.80;;;;;-0.70;97936.80;;;;111008;1247;41150;-59
2022/02/06 01:07:39;;;;;;;25.60;12.50;;;;;-0.70;97942.40;;;;111002;1249;41160;-58
2022/02/06 01:10:09;;;;;;;23.90;12.30;;;;;-0.80;97950.00;;;;110999;1248;42096;-60
2022/02/06 01:12:42;;;;;;;26.00;12.60;;;;;-0.80;97950.60;;;;110996;1249;41717;-61
2022/02/06 01:15:18;;;;;;;23.50;11.80;;;;;-0.90;97946.20;;;;111063;1246;41919;-59
2022/02/06 01:17:56;;;;;;;24.10;11.60;;;;;-0.90;97946.00;;;;110982;1246;41156;-59
2022/02/06 01:20:35;;;;;;;24.10;11.90;;;;;-0.92;97947.40;;;;110717;1248;41258;-59
2022/02/06 01:23:21;;;;;;;31.10;13.80;;;;;-0.98;97943.60;;;;111012;1247;41257;-59
2022/02/06 01:25:59;;;;;;;25.90;13.40;;;;;-1.00;97935.40;;;;111056;1247;41084;-61
2022/02/06 01:28:43;;;;;;;27.70;13.90;;;;;-1.00;97933.40;;;;110991;1248;41496;-58
2022/02/06 01:33:49;;;;;;;28.50;14.50;;;;;-1.00;97931.60;;;;110814;1247;41261;-58
2022/02/06 01:36:39;;;;;;;27.80;14.10;;;;;-1.00;97927.00;;;;110894;1250;41618;-59
2022/02/06 01:39:22;;;;;;;30.70;14.60;;;;;-1.00;97924.60;;;;110988;1246;41261;-60
2022/02/06 01:41:57;;;;;;;26.00;13.60;;;;;-1.00;97918.80;;;;111093;1247;41260;-60
2022/02/06 01:44:45;;;;;;;24.10;12.40;;;;;-1.00;97920.80;;;;111033;1248;41712;-60
2022/02/06 02:10:05;;;;;;;22.50;12.30;;;;;-0.70;97939.60;;;;110974;1248;41256;-60
2022/02/06 02:12:43;;;;;;;26.90;13.10;;;;;-0.60;97939.80;;;;111001;1248;41707;-60
2022/02/06 02:24:30;;;;;;;27.90;14.00;;;;;-0.56;97942.20;;;;110805;1249;41256;-60
2022/02/06 02:48:16;;;;;;;29.00;13.90;;;;;-0.80;97932.20;;;;111036;1247;41158;-59
2022/02/06 02:50:54;;;;;;;29.50;13.30;;;;;-0.90;97926.80;;;;110960;1247;41152;-59
2022/02/06 02:56:24;;;;;;;26.00;13.10;;;;;-1.00;97931.80;;;;110987;1247;41793;-59
2022/02/06 03:01:37;;;;;;;27.30;13.00;;;;;-1.10;97930.80;;;;110962;1249;41897;-60
2022/02/06 03:04:06;;;;;;;25.20;12.30;;;;;-1.20;97937.80;;;;110986;1248;41134;-58
2022/02/06 03:06:37;;;;;;;;;;;;;-1.30;97937.40;;;;110982;1249;41463;-59
2022/02/06 03:09:07;;;;;;;24.20;12.80;;;;;-1.30;97940.60;;;;111013;1249;41627;-59
2022/02/06 03:11:37;;;;;;;23.80;12.50;;;;;-1.38;97934.80;;;;110975;1248;41266;-60
2022/02/06 03:16:44;;;;;;;35.10;17.10;;;;;-1.54;97943.20;;;;111054;1249;41198;-61
2022/02/06 03:19:19;;;;;;;31.80;15.80;;;;;-1.70;97947.00;;;;110917;1249;41146;-60
2022/02/06 03:21:51;;;;;;;33.20;17.00;;;;;-1.76;97941.80;;;;110797;1249;41193;-59
2022/02/06 03:24:23;;;;;;;31.80;16.50;;;;;-1.80;97951.80;;;;110894;1249;41153;-60
2022/02/06 03:26:55;;;;;;;31.20;15.90;;;;;-1.88;97961.00;;;;111020;1249;41264;-59
2022/02/06 03:29:25;;;;;;;35.30;16.90;;;;;-1.90;97956.80;;;;110993;1248;41659;-58
2022/02/06 03:31:55;;;;;;;29.40;15.10;;;;;-1.90;97957.40;;;;110980;1248;41125;-59
2022/02/06 03:34:26;;;;;;;24.90;12.50;;;;;-1.90;97958.40;;;;110787;1249;41152;-60
2022/02/06 03:36:56;;;;;;;31.60;14.80;;;;;-1.90;97956.40;;;;111008;1249;41920;-59
2022/02/06 03:39:27;;;;;;;32.60;14.70;;;;;-1.90;97958.60;;;;111014;1249;41539;-59
2022/02/06 03:42:10;;;;;;;;;;;;;-1.90;97955.00;;;;110860;1250;41588;-59
2022/02/06 03:44:50;;;;;;;26.90;13.60;;;;;-2.00;97956.60;;;;110931;1250;41144;-58
2022/02/06 03:47:24;;;;;;;24.80;13.40;;;;;-2.00;97956.00;;;;111088;1248;41143;-60
2022/02/06 03:50:01;;;;;;;27.60;13.40;;;;;-2.00;97951.40;;;;111089;1248;41616;-59
2022/02/06 03:52:37;;;;;;;28.80;13.40;;;;;-2.00;97938.80;;;;111077;1248;41152;-58
2022/02/06 03:55:09;;;;;;;32.20;15.30;;;;;-2.00;97945.20;;;;111106;1248;41597;-59
2022/02/06 03:57:38;;;;;;;30.60;14.60;;;;;-2.00;97944.20;;;;110970;1249;41266;-59
2022/02/06 04:00:09;;;;;;;29.30;15.00;;;;;-2.00;97945.00;;;;110994;1248;41308;-59
2022/02/06 04:02:39;;;;;;;30.70;14.80;;;;;-2.00;97947.20;;;;111046;1249;41693;-59
2022/02/06 04:05:10;;;;;;;26.50;13.80;;;;;-2.10;97941.80;;;;110995;1248;41188;-59
2022/02/06 04:07:44;;;;;;;25.80;13.10;;;;;-2.10;97944.40;;;;111051;1249;41161;-60
2022/02/06 04:10:15;;;;;;;24.20;12.90;;;;;-2.10;97945.40;;;;111072;1248;41459;-59
2022/02/06 04:12:47;;;;;;;28.00;13.90;;;;;-2.10;97942.60;;;;110992;1249;41197;-59
2022/02/06 04:15:27;;;;;;;27.10;13.00;;;;;-2.20;97948.60;;;;111009;1248;42168;-58
2022/02/06 04:21:01;;;;;;;25.90;12.90;;;;;-2.20;97949.60;;;;110750;1247;41159;-61
2022/02/06 04:23:31;;;;;;;26.30;13.10;;;;;-2.20;97947.40;;;;111024;1248;41154;-59
2022/02/06 04:26:01;;;;;;;24.40;12.00;;;;;-2.20;97947.60;;;;111041;1249;41586;-59
2022/02/06 04:28:35;;;;;;;30.90;15.40;;;;;-2.20;97952.60;;;;111030;1249;41261;-59
2022/02/06 04:31:05;;;;;;;31.40;16.50;;;;;-2.20;97955.80;;;;111023;1249;41645;-59
2022/02/06 04:33:35;;;;;;;28.50;14.70;;;;;-2.20;97964.40;;;;111115;1248;41154;-58
2022/02/06 04:36:10;;;;;;;32.90;16.40;;;;;-2.20;97961.00;;;;111003;1249;41137;-58
2022/02/06 04:49:31;;;;;;;24.90;12.20;;;;;-2.30;97970.40;;;;110989;1248;42183;-62
2022/02/06 04:52:18;;;;;;;25.60;12.50;;;;;-2.30;97974.00;;;;110992;1248;41477;-59
2022/02/06 05:12:33;;;;;;;40.60;20.10;;;;;-2.60;97978.00;;;;111030;1248;41887;-58
2022/02/06 05:15:01;;;;;;;38.20;18.90;;;;;-2.60;97980.40;;;;111013;1248;41155;-59
2022/02/06 05:30:27;;;;;;;31.70;14.80;;;;;-2.80;97968.20;;;;111061;1248;41151;-60
2022/02/06 05:32:59;;;;;;;32.10;16.50;;;;;-2.90;97971.20;;;;111022;1248;41159;-60
2022/02/06 05:35:28;;;;;;;;;;;;;-2.90;97969.20;;;;111086;1248;41259;-59
2022/02/06 05:37:58;;;;;;;32.30;17.20;;;;;-2.90;97965.40;;;;111042;1250;41134;-59
2022/02/06 05:40:28;;;;;;;34.80;18.10;;;;;-3.00;97965.20;;;;111064;1249;41159;-58
2022/02/06 05:42:57;;;;;;;30.90;16.20;;;;;-3.00;97957.60;;;;111036;1248;41411;-59
2022/02/06 05:45:26;;;;;;;34.70;17.60;;;;;-3.00;97959.80;;;;111082;1248;41794;-59
2022/02/06 05:47:56;;;;;;;37.30;17.80;;;;;-3.00;97961.00;;;;110944;1248;41455;-59
2022/02/06 05:50:26;;;;;;;33.50;15.80;;;;;-3.00;97967.80;;;;111065;1249;41981;-58
2022/02/06 05:52:55;;;;;;;35.00;17.70;;;;;-3.04;97977.20;;;;110972;1247;41793;-58
2022/02/06 05:55:26;;;;;;;;;;;;;-3.04;97970.20;;;;110980;1248;41255;-58
2022/02/06 05:57:56;;;;;;;30.90;15.60;;;;;-3.10;97967.80;;;;111005;1249;41142;-59
2022/02/06 06:00:25;;;;;;;33.50;16.90;;;;;-3.10;97972.60;;;;110928;1248;41155;-61
2022/02/06 06:02:54;;;;;;;33.30;15.80;;;;;-3.10;97974.60;;;;111015;1249;41139;-60
2022/02/06 06:05:23;;;;;;;33.20;15.80;;;;;-3.10;97976.00;;;;111061;1249;41438;-59
2022/02/06 06:07:53;;;;;;;32.60;15.80;;;;;-3.10;97976.60;;;;110970;1248;42380;-60
2022/02/06 06:10:27;;;;;;;31.60;15.60;;;;;-3.08;97984.40;;;;110977;1249;41615;-60
2022/02/06 06:13:00;;;;;;;30.10;14.40;;;;;-3.02;97985.00;;;;111044;1247;41166;-61
2022/02/06 06:15:30;;;;;;;28.30;14.30;;;;;-3.00;97987.80;;;;110978;1250;41890;-61
2022/02/06 06:18:04;;;;;;;28.80;14.20;;;;;-3.00;97980.00;;;;110719;1251;42310;-61
2022/02/06 06:20:35;;;;;;;30.20;14.10;;;;;-2.90;97984.00;;;;111029;1249;41124;-60
2022/02/06 06:23:04;;;;;;;29.30;14.40;;;;;-2.90;97985.00;;;;111012;1248;41916;-59
2022/02/06 06:25:38;;;;;;;48.00;21.10;;;;;-2.80;97993.80;;;;111028;1248;41915;-60
2022/02/06 06:28:08;;;;;;;47.10;21.30;;;;;-2.70;97998.00;;;;110874;1249;42439;-60
2022/02/06 06:30:37;;;;;;;39.40;17.70;;;;;-2.60;97989.60;;;;111039;1248;42488;-59
2022/02/06 06:33:07;;;;;;;35.50;15.70;;;;;-2.44;97992.60;;;;111054;1248;41152;-57
2022/02/06 06:35:53;;;;;;;40.80;18.70;;;;;-2.28;97995.40;;;;110911;1249;42155;-58
2022/02/06 06:38:23;;;;;;;34.00;16.90;;;;;-2.10;97990.60;;;;111085;1248;41177;-58
2022/02/06 06:40:53;;;;;;;31.50;15.40;;;;;-1.90;97997.20;;;;111000;1248;41146;-59
2022/02/06 06:43:22;;;;;;;29.90;15.60;;;;;-1.70;97994.20;;;;110982;1249;42095;-60
2022/02/06 06:45:51;;;;;;;29.90;15.30;;;;;-1.50;97997.80;;;;110972;1247;41139;-59
2022/02/06 06:48:21;;;;;;;34.40;15.20;;;;;-1.30;97997.80;;;;111053;1248;41738;-58
2022/02/06 06:50:50;;;;;;;34.00;16.10;;;;;-1.14;97990.80;;;;111077;1248;41181;-58
2022/02/06 06:53:19;;;;;;;40.50;18.60;;;;;-0.94;97993.00;;;;111075;1249;41136;-58
2022/02/06 06:55:56;;;;;;;44.90;19.30;;;;;-0.70;97986.80;;;;110873;1249;41180;-58
2022/02/06 06:58:33;;;;;;;45.10;21.60;;;;;-0.50;97987.20;;;;111026;1248;41135;-60
2022/02/06 07:03:37;;;;;;;56.90;26.30;;;;;-0.10;97983.80;;;;111063;1248;41144;-59
2022/02/06 07:06:07;;;;;;;62.60;30.20;;;;;0.10;97983.00;;;;111070;1248;41172;-60
2022/02/06 07:08:36;;;;;;;72.10;32.80;;;;;0.40;97983.60;;;;111036;1248;41744;-59
2022/02/06 07:11:05;;;;;;;76.60;36.40;;;;;0.60;97986.00;;;;110992;1248;41166;-58
2022/02/06 07:13:34;;;;;;;74.50;35.70;;;;;0.86;97985.80;;;;111000;1248;41189;-59
2022/02/06 07:16:06;;;;;;;97.30;44.90;;;;;1.10;97985.40;;;;111011;1247;41374;-58
2022/02/06 07:18:35;;;;;;;79.30;36.30;;;;;1.30;97980.20;;;;111001;1249;41258;-58
2022/02/06 07:21:06;;;;;;;76.80;36.00;;;;;1.58;97977.40;;;;111083;1248;41955;-58
2022/02/06 07:23:35;;;;;;;76.50;39.80;;;;;1.80;97972.00;;;;110894;1247;42469;-61
2022/02/06 07:26:07;;;;;;;72.90;37.20;;;;;2.04;97970.60;;;;110892;1248;41425;-59
2022/02/06 07:28:39;;;;;;;65.80;33.10;;;;;2.30;97971.60;;;;110985;1248;41735;-59
2022/02/06 07:31:08;;;;;;;56.60;30.40;;;;;2.56;97969.40;;;;111052;1247;41262;-59
2022/02/06 07:33:37;;;;;;;38.90;19.60;;;;;2.80;97974.60;;;;111029;1249;41189;-61
2022/02/06 07:36:06;;;;;;;40.70;19.10;;;;;2.98;97976.40;;;;110794;1250;41138;-60
2022/02/06 07:38:36;;;;;;;31.60;16.70;;;;;3.10;97979.00;;;;110950;1249;41383;-59
2022/02/06 07:41:05;;;;;;;35.70;17.80;;;;;3.08;97973.20;;;;111032;1248;41150;-59
2022/02/06 07:43:40;;;;;;;34.40;16.60;;;;;3.20;97973.80;;;;110743;1250;41246;-60
2022/02/06 07:46:11;;;;;;;29.80;14.50;;;;;3.20;97978.60;;;;111042;1248;41149;-60
2022/02/06 07:48:41;;;;;;;30.20;15.50;;;;;3.08;97974.80;;;;111086;1248;41255;-58
2022/02/06 07:51:10;;;;;;;33.20;16.60;;;;;2.94;97973.80;;;;111012;1249;41182;-60
2022/02/06 07:53:39;;;;;;;29.10;14.00;;;;;2.92;97978.20;;;;111050;1247;41155;-60
2022/02/06 07:56:08;;;;;;;36.90;15.00;;;;;2.92;97974.60;;;;111031;1248;41399;-60
2022/02/06 07:58:37;;;;;;;40.10;18.00;;;;;2.86;97974.40;;;;111082;1248;42159;-60
2022/02/06 08:01:07;;;;;;;32.80;15.60;;;;;2.76;97975.60;;;;111089;1249;41344;-59
2022/02/06 08:03:36;;;;;;;33.80;15.30;;;;;2.76;97974.20;;;;111001;1249;41875;-59
2022/02/06 08:06:05;;;;;;;22.60;11.90;;;;;2.84;97971.40;;;;110973;1247;41250;-59
2022/02/06 08:08:35;;;;;;;20.50;10.30;;;;;2.80;97978.00;;;;110808;1250;41593;-60
2022/02/06 08:11:04;;;;;;;20.40;10.30;;;;;2.80;97972.20;;;;110993;1247;42369;-57
2022/02/06 08:13:42;;;;;;;20.40;10.10;;;;;2.78;97973.40;;;;111082;1247;41585;-58
2022/02/06 08:16:11;;;;;;;18.70;9.20;;;;;2.90;97965.80;;;;111025;1248;41155;-61
2022/02/06 08:18:41;;;;;;;20.40;9.40;;;;;2.94;97963.20;;;;111015;1248;41132;-61
2022/02/06 08:21:12;;;;;;;16.60;8.10;;;;;3.30;97964.40;;;;111015;1248;42482;-60
2022/02/06 08:23:45;;;;;;;21.80;10.20;;;;;3.78;97961.40;;;;110988;1247;41271;-60
2022/02/06 08:26:14;;;;;;;15.60;7.80;;;;;4.14;97969.60;;;;111099;1248;41717;-62
2022/02/06 08:29:02;;;;;;;17.30;9.00;;;;;3.48;97975.60;;;;111041;1249;41236;-60
2022/02/06 08:31:32;;;;;;;17.30;7.70;;;;;4.44;97958.20;;;;110930;1250;41257;-60
2022/02/06 08:34:01;;;;;;;17.30;8.50;;;;;4.82;97951.80;;;;110972;1248;41139;-60
2022/02/06 08:36:31;;;;;;;21.60;9.10;;;;;5.48;97940.80;;;;110991;1250;41481;-58
2022/02/06 08:39:07;;;;;;;16.50;7.70;;;;;6.68;97934.80;;;;110896;1248;41491;-62
2022/02/06 08:41:37;;;;;;;14.00;7.20;;;;;6.76;97928.20;;;;110943;1248;41144;-59
2022/02/06 08:44:06;;;;;;;15.80;6.90;;;;;7.64;97925.20;;;;110787;1247;41611;-58
2022/02/06 08:46:35;;;;;;;30.70;14.70;;;;;8.54;97919.00;;;;110725;1249;41145;-59
2022/02/06 08:49:04;;;;;;;18.20;8.20;;;;;7.68;97928.80;;;;110975;1247;41215;-61
2022/02/06 08:51:33;;;;;;;14.50;6.70;;;;;7.82;97928.20;;;;110768;1248;41707;-61
2022/02/06 08:54:02;;;;;;;18.70;9.10;;;;;8.70;97920.40;;;;110898;1250;41164;-60
2022/02/06 08:56:33;;;;;;;13.10;6.10;;;;;9.28;97924.20;;;;111066;1247;41253;-59
2022/02/06 08:59:02;;;;;;;12.90;6.20;;;;;7.70;97928.40;;;;110970;1248;41142;-58
2022/02/06 09:01:32;;;;;;;14.20;6.10;;;;;9.84;97909.00;;;;110980;1247;41144;-59
2022/02/06 09:04:03;;;;;;;13.20;6.20;;;;;10.78;97901.80;;;;110823;1248;330826;-60
2022/02/06 09:06:36;;;;;;;13.10;6.80;;;;;12.10;97895.60;;;;111050;1248;41625;-58
2022/02/06 09:09:05;;;;;;;15.20;7.40;;;;;12.78;97892.00;;;;110980;1248;41155;-58
2022/02/06 09:11:34;;;;;;;19.70;10.00;;;;;12.92;97888.20;;;;111027;1247;41197;-58
2022/02/06 09:14:03;;;;;;;18.80;8.80;;;;;10.16;97917.00;;;;111014;1248;41151;-58
2022/02/06 09:16:32;;;;;;;15.50;7.50;;;;;7.70;97927.00;;;;111095;1248;41124;-58
2022/02/06 09:19:01;;;;;;;16.40;8.20;;;;;7.58;97929.80;;;;110874;1248;41187;-58
2022/02/06 09:21:30;;;;;;;18.40;9.00;;;;;6.40;97940.40;;;;111125;1247;41150;-59
2022/02/06 09:23:59;;;;;;;20.90;9.10;;;;;6.08;97935.60;;;;110986;1248;41264;-59
2022/02/06 09:26:28;;;;;;;17.30;8.10;;;;;6.14;97940.40;;;;110888;1250;41610;-58
2022/02/06 09:28:57;;;;;;;19.40;8.40;;;;;6.92;97925.80;;;;110987;1248;41634;-59
2022/02/06 09:31:27;;;;;;;21.00;7.30;;;;;7.52;97917.00;;;;111067;1248;41278;-59
2022/02/06 09:36:25;;;;;;;14.20;6.60;;;;;10.08;97879.00;;;;110953;1248;41771;-60
2022/02/06 09:38:54;;;;;;;16.80;7.20;;;;;11.60;97871.60;;;;111076;1248;41942;-59
2022/02/06 09:41:24;;;;;;;15.70;7.00;;;;;12.76;97851.00;;;;111015;1248;41165;-59
2022/02/06 09:43:54;;;;;;;14.30;7.60;;;;;14.72;97843.20;;;;111053;1247;41044;-60
2022/02/06 09:46:32;;;;;;;13.40;6.00;;;;;14.08;97841.60;;;;111047;1247;41128;-57
2022/02/06 09:49:05;;;;;;;12.10;5.60;;;;;13.62;97843.60;;;;110993;1248;41150;-59
2022/02/06 09:51:35;;;;;;;12.30;5.10;;;;;12.80;97847.40;;;;110787;1250;41139;-60
2022/02/06 09:54:04;;;;;;;13.60;5.30;;;;;13.04;97836.60;;;;111026;1247;42388;-60
2022/02/06 09:56:36;;;;;;;11.70;5.20;;;;;13.24;97835.40;;;;110902;1247;42111;-60
2022/02/06 09:59:17;;;;;;;11.00;5.30;;;;;13.28;97839.80;;;;110904;1248;41723;-59
2022/02/06 10:01:54;;;;;;;12.80;5.20;;;;;11.64;97845.00;;;;110990;1248;41160;-61
2022/02/06 10:04:27;;;;;;;9.90;4.30;;;;;10.72;97831.00;;;;111006;1247;41261;-59
2022/02/06 10:07:08;;;;;;;14.20;4.40;;;;;12.48;97819.40;;;;111038;1247;41547;-60
2022/02/06 10:09:49;;;;;;;17.80;5.20;;;;;12.52;97814.00;;;;110980;1247;41267;-59
2022/02/06 10:12:20;;;;;;;10.10;4.40;;;;;13.68;97829.00;;;;111018;1248;41752;-59
2022/02/06 10:14:50;;;;;;;11.20;4.10;;;;;11.36;97848.80;;;;111011;1248;41118;-59
2022/02/06 10:17:23;;;;;;;9.50;3.90;;;;;8.40;97864.20;;;;110971;1250;41166;-59
2022/02/06 10:19:54;;;;;;;9.30;3.80;;;;;7.46;97871.00;;;;111044;1248;41514;-58
2022/02/06 10:22:36;;;;;;;8.50;4.00;;;;;7.00;97870.40;;;;110961;1247;41585;-59
2022/02/06 10:25:10;;;;;;;11.40;4.40;;;;;7.18;97859.20;;;;110923;1248;41425;-60
2022/02/06 10:28:46;;;;;;;11.30;4.80;;;;;6.50;97865.40;;;;111069;1249;41497;-58
2022/02/06 10:30:52;;;;;;;10.10;4.90;;;;;6.04;97867.20;;;;110944;1248;41155;-58
2022/02/06 10:33:23;;;;;;;12.60;5.20;;;;;5.92;97858.80;;;;110959;1248;41383;-58
2022/02/06 10:35:54;;;;;;;9.80;4.80;;;;;5.68;97862.20;;;;110989;1248;41258;-59
2022/02/06 10:38:24;;;;;;;;;;;;;4.98;97859.00;;;;110910;1249;41249;-58
2022/02/06 10:41:13;;;;;;;12.70;5.80;;;;;4.96;97856.00;;;;111133;1248;41962;-59
2022/02/06 10:43:56;;;;;;;12.10;5.90;;;;;4.80;97852.40;;;;110936;1247;42171;-58
2022/02/06 10:46:28;;;;;;;13.30;5.60;;;;;4.90;97838.60;;;;110996;1248;41168;-58
2022/02/06 10:49:00;;;;;;;13.30;6.30;;;;;5.30;97824.60;;;;111033;1248;41736;-58
2022/02/06 10:51:47;;;;;;;10.50;4.70;;;;;5.94;97815.00;;;;111122;1247;41412;-60
2022/02/06 10:54:29;;;;;;;9.80;4.30;;;;;6.74;97806.40;;;;111077;1247;41954;-58
2022/02/06 10:57:10;;;;;;;11.30;4.70;;;;;8.02;97789.60;;;;111052;1248;41611;-59
2022/02/06 10:59:48;;;;;;;11.10;4.60;;;;;9.58;97772.60;;;;110868;1248;41601;-59
2022/02/06 11:02:38;;;;;;;12.50;5.30;;;;;10.68;97771.40;;;;111035;1249;41529;-59
2022/02/06 11:05:20;;;;;;;;;;;;;10.36;97771.40;;;;111022;1248;41147;-62
2022/02/06 11:08:01;;;;;;;14.10;5.10;;;;;9.58;97774.80;;;;110780;1249;41746;-61
2022/02/06 11:10:35;;;;;;;10.50;4.40;;;;;9.08;97771.80;;;;110991;1247;41251;-59
2022/02/06 11:13:05;;;;;;;12.40;5.10;;;;;9.26;97771.60;;;;111011;1247;41268;-59
2022/02/06 11:15:45;;;;;;;12.60;5.30;;;;;9.04;97770.00;;;;110971;1250;41161;-59
2022/02/06 11:18:25;;;;;;;11.40;4.60;;;;;8.24;97773.80;;;;111031;1249;41117;-58
2022/02/06 11:21:02;;;;;;;10.90;4.00;;;;;8.78;97761.60;;;;110964;1247;41261;-60
2022/02/06 11:23:37;;;;;;;9.20;3.80;;;;;10.02;97757.80;;;;111025;1247;41512;-59
2022/02/06 11:26:12;;;;;;;10.10;3.60;;;;;11.10;97738.40;;;;111091;1248;41757;-58
2022/02/06 11:28:41;;;;;;;18.10;4.40;;;;;11.68;97733.80;;;;111007;1248;41336;-58
2022/02/06 11:31:11;;;;;;;9.20;3.20;;;;;11.46;97723.00;;;;111080;1248;41737;-60
2022/02/06 11:33:40;;;;;;;7.60;3.00;;;;;11.92;97717.00;;;;110736;1249;41849;-59
2022/02/06 11:36:22;;;;;;;8.60;3.90;;;;;14.36;97702.00;;;;111019;1248;41267;-59
2022/02/06 11:44:49;;;;;;;8.50;2.90;;;;;16.46;97698.60;;;;111018;1247;41328;-60
2022/02/06 11:47:25;;;;;;;8.10;2.70;;;;;14.24;97711.00;;;;111106;1247;41600;-59
2022/02/06 11:49:59;;;;;;;7.00;2.70;;;;;12.36;97709.60;;;;111044;1248;41151;-60
2022/02/06 11:52:47;;;;;;;7.80;3.00;;;;;11.90;97714.40;;;;110763;1248;41135;-58
2022/02/06 11:55:39;;;;;;;6.50;2.80;;;;;10.30;97717.00;;;;111088;1248;41156;-59
2022/02/06 11:58:28;;;;;;;7.90;3.00;;;;;9.50;97715.60;;;;111059;1246;41596;-60
2022/02/06 12:01:06;;;;;;;6.60;2.60;;;;;8.80;97725.00;;;;111042;1247;41906;-58
2022/02/06 12:03:57;;;;;;;7.00;2.70;;;;;8.08;97728.00;;;;111035;1248;41644;-58
2022/02/06 12:06:32;;;;;;;;;;;;;7.88;97722.80;;;;111084;1247;41148;-60
2022/02/06 12:09:01;;;;;;;6.20;2.60;;;;;7.22;97717.40;;;;111009;1248;41169;-59
2022/02/06 12:11:34;;;;;;;7.60;2.50;;;;;7.26;97711.00;;;;110972;1249;41178;-59
2022/02/06 12:14:10;;;;;;;8.10;2.80;;;;;7.24;97708.40;;;;111007;1247;41949;-60
2022/02/06 12:20:11;;;;;;;6.10;2.50;;;;;6.90;97700.80;;;;111038;1248;41823;-58
2022/02/06 12:22:45;;;;;;;9.30;3.00;;;;;6.78;97702.80;;;;111028;1248;41320;-59
2022/02/06 12:25:21;;;;;;;10.00;3.00;;;;;6.74;97692.60;;;;111025;1248;41203;-58
2022/02/06 12:27:53;;;;;;;10.10;3.10;;;;;6.80;97692.00;;;;111063;1247;41673;-58
2022/02/06 12:30:25;;;;;;;6.80;2.80;;;;;6.64;97694.20;;;;111069;1247;41270;-59
2022/02/06 12:33:38;;;;;;;7.00;2.70;;;;;6.76;97681.60;;;;110810;1248;41944;-58
2022/02/06 12:38:59;;;;;;;9.20;3.20;;;;;6.64;97681.20;;;;111072;1247;41276;-60
2022/02/06 12:41:30;;;;;;;6.40;2.40;;;;;6.70;97679.80;;;;111078;1248;42445;-58
2022/02/06 12:44:05;;;;;;;8.60;2.70;;;;;6.62;97680.00;;;;110997;1247;41135;-59
2022/02/06 12:46:34;;;;;;;8.50;2.90;;;;;6.80;97667.60;;;;110933;1248;41148;-58
2022/02/06 12:49:04;;;;;;;6.80;2.70;;;;;6.80;97663.00;;;;111035;1248;41144;-61
2022/02/06 12:51:37;;;;;;;12.00;4.10;;;;;7.02;97655.40;;;;111040;1247;41613;-58
2022/02/06 12:54:10;;;;;;;11.90;3.80;;;;;7.40;97647.80;;;;110977;1248;41173;-59
2022/02/06 12:56:40;;;;;;;7.50;3.10;;;;;8.20;97632.40;;;;110974;1249;41166;-59
2022/02/06 12:59:11;;;;;;;27.40;10.40;;;;;9.58;97618.40;;;;111150;1246;40717;-59
2022/02/06 13:01:43;;;;;;;22.20;9.10;;;;;10.58;97609.20;;;;110996;1249;42449;-59
2022/02/06 13:04:15;;;;;;;8.40;3.90;;;;;11.72;97595.00;;;;111028;1246;41125;-58
2022/02/06 13:06:47;;;;;;;8.70;4.30;;;;;12.58;97587.60;;;;111026;1248;41144;-59
2022/02/06 13:09:24;;;;;;;8.60;2.80;;;;;13.40;97584.20;;;;111037;1247;41533;-59
2022/02/06 13:14:52;;;;;;;7.70;2.20;;;;;12.28;97587.00;;;;111022;1248;41276;-60
2022/02/06 13:25:38;;;;;;;6.30;2.70;;;;;9.90;97585.00;;;;111036;1247;41172;-59
2022/02/06 13:33:47;;;;;;;11.70;3.90;;;;;11.28;97567.00;;;;110981;1248;41581;-59
2022/02/06 13:38:54;;;;;;;9.40;3.70;;;;;12.18;97533.80;;;;111025;1246;41264;-59
2022/02/06 13:41:27;;;;;;;10.70;3.90;;;;;11.06;97553.40;;;;111035;1248;42293;-58
2022/02/06 13:43:57;;;;;;;9.40;3.80;;;;;10.10;97552.00;;;;111013;1248;42300;-58
2022/02/06 13:46:31;;;;;;;10.40;4.60;;;;;9.06;97559.40;;;;110992;1247;42353;-58
2022/02/06 13:49:00;;;;;;;10.50;5.00;;;;;8.58;97563.20;;;;111008;1247;41169;-56
2022/02/06 13:51:36;;;;;;;12.20;5.60;;;;;7.86;97571.60;;;;110893;1249;41139;-61
2022/02/06 13:54:06;;;;;;;15.10;6.50;;;;;7.64;97568.20;;;;110923;1249;41167;-62
2022/02/06 13:56:45;;;;;;;14.90;6.10;;;;;7.32;97574.40;;;;111152;1247;41372;-60
2022/02/06 13:59:19;;;;;;;13.20;6.00;;;;;7.20;97574.40;;;;111030;1247;41152;-59
2022/02/06 14:01:53;;;;;;;11.90;5.10;;;;;6.94;97580.80;;;;110827;1248;41153;-59
2022/02/06 14:04:33;;;;;;;13.30;5.80;;;;;6.68;97575.60;;;;110983;1247;41170;-58
2022/02/06 14:07:05;;;;;;;15.90;6.20;;;;;6.60;97574.40;;;;111014;1247;41141;-57
2022/02/06 14:12:16;;;;;;;15.00;6.60;;;;;6.60;97570.60;;;;111032;1246;41141;-58
2022/02/06 14:14:52;;;;;;;17.70;6.60;;;;;6.50;97561.20;;;;110994;1248;41206;-58
2022/02/06 14:17:35;;;;;;;13.30;5.70;;;;;6.50;97559.80;;;;110977;1248;41263;-59
2022/02/06 14:20:12;;;;;;;12.90;6.00;;;;;6.50;97559.20;;;;111051;1248;42435;-59
2022/02/06 14:22:47;;;;;;;15.80;6.00;;;;;6.30;97553.00;;;;111000;1246;41137;-58
2022/02/06 14:25:27;;;;;;;14.50;5.30;;;;;6.20;97553.40;;;;111052;1247;41588;-57
2022/02/06 14:27:58;;;;;;;16.40;5.30;;;;;6.30;97540.00;;;;111074;1248;41620;-58
2022/02/06 14:30:40;;;;;;;19.00;5.60;;;;;6.20;97542.20;;;;111058;1248;41251;-59
2022/02/06 14:33:21;;;;;;;12.80;4.80;;;;;6.12;97542.40;;;;110822;1248;42153;-59
2022/02/06 14:35:57;;;;;;;14.00;4.70;;;;;6.10;97538.60;;;;111125;1246;41158;-58
2022/02/06 14:38:44;;;;;;;15.30;4.60;;;;;6.00;97531.80;;;;110999;1248;41265;-58
2022/02/06 14:43:57;;;;;;;11.50;4.30;;;;;5.90;97526.60;;;;111038;1248;41132;-59
2022/02/06 14:46:28;;;;;;;12.60;4.60;;;;;5.92;97525.40;;;;111053;1248;41264;-61
2022/02/06 14:48:58;;;;;;;;;;;;;5.90;97521.60;;;;111057;1246;41544;-59
2022/02/06 14:51:30;;;;;;;10.30;3.80;;;;;5.90;97524.80;;;;110995;1246;41264;-59
2022/02/06 14:54:01;;;;;;;9.70;4.20;;;;;5.80;97512.60;;;;111130;1247;42177;-60
2022/02/06 14:56:33;;;;;;;13.50;4.90;;;;;5.80;97505.20;;;;111072;1248;41184;-59
2022/02/06 14:59:03;;;;;;;15.30;4.70;;;;;5.80;97495.60;;;;111061;1248;42061;-59
2022/02/06 15:01:33;;;;;;;12.60;4.20;;;;;5.70;97494.00;;;;111091;1247;41264;-58
2022/02/06 15:04:03;;;;;;;11.80;5.00;;;;;5.68;97493.20;;;;111070;1247;41139;-58
2022/02/06 15:06:32;;;;;;;11.30;4.70;;;;;5.60;97485.60;;;;110879;1248;41388;-59